Time;durP1;ratioP1;P1;durP2;ratioP2;P2;SDS_P1;SDS_P2;PMS_P1;PMS_P2;Temp;Humidity;BMP_temperature;BMP_pressure;BME280_temperature;BME280_humidity;BME280_pressure;Samples;Min_cycle;Max_cycle;Signal;HPM_P1;HPM_P2
2022/07/06 00:00:09;;;;;;;3.63;1.30;;;;;;;;;;504085;29;1223;-87
2022/07/06 00:00:25;;;;;;;3.42;1.35;;;;;;;;;;504664;29;1464;-88
2022/07/06 00:00:40;;;;;;;2.50;1.47;;;;;;;;;;505315;29;1606;-86
2022/07/06 00:00:56;;;;;;;2.65;1.40;;;;;;;;;;507013;29;1568;-87
2022/07/06 00:01:11;;;;;;;3.60;1.47;;;;;;;;;;505668;29;1578;-87
2022/07/06 00:01:26;;;;;;;3.77;1.40;;;;;;;;;;503926;29;1508;-87
2022/07/06 00:01:42;;;;;;;2.75;1.30;;;;;;;;;;504365;29;1552;-87
2022/07/06 00:01:57;;;;;;;2.83;1.40;;;;;;;;;;504919;29;1187;-87
2022/07/06 00:02:13;;;;;;;3.63;1.40;;;;;;;;;;504303;29;1299;-89
2022/07/06 00:02:28;;;;;;;4.07;1.60;;;;;;;;;;502960;29;1469;-86
2022/07/06 00:02:44;;;;;;;4.03;1.60;;;;;;;;;;503218;29;1177;-87
2022/07/06 00:02:59;;;;;;;3.08;1.40;;;;;;;;;;504366;29;1357;-87
2022/07/06 00:03:14;;;;;;;2.33;1.47;;;;;;;;;;506182;29;1215;-89
2022/07/06 00:03:30;;;;;;;3.00;1.50;;;;;;;;;;504267;29;1618;-87
2022/07/06 00:03:45;;;;;;;4.22;1.60;;;;;;;;;;506073;29;924;-86
2022/07/06 00:04:02;;;;;;;3.37;1.43;;;;;;;;;;503816;29;1519;-86
2022/07/06 00:04:18;;;;;;;2.60;1.40;;;;;;;;;;502820;29;1393;-87
2022/07/06 00:04:33;;;;;;;3.80;1.65;;;;;;;;;;503801;29;1230;-90
2022/07/06 00:04:49;;;;;;;4.40;1.80;;;;;;;;;;502435;29;1374;-89
2022/07/06 00:05:04;;;;;;;3.60;1.67;;;;;;;;;;502768;29;1612;-86
2022/07/06 00:05:20;;;;;;;3.07;1.50;;;;;;;;;;504352;29;1248;-87
2022/07/06 00:05:35;;;;;;;2.88;1.40;;;;;;;;;;505051;29;1535;-86
2022/07/06 00:05:51;;;;;;;2.80;1.33;;;;;;;;;;500722;29;1266;-87
2022/07/06 00:06:06;;;;;;;2.40;1.35;;;;;;;;;;500611;29;981;-87
2022/07/06 00:06:23;;;;;;;2.67;1.40;;;;;;;;;;504353;29;1582;-87
2022/07/06 00:06:38;;;;;;;3.47;1.40;;;;;;;;;;507132;29;1344;-87
2022/07/06 00:06:54;;;;;;;3.50;1.50;;;;;;;;;;509168;29;1230;-86
2022/07/06 00:07:09;;;;;;;3.15;1.50;;;;;;;;;;506077;29;1226;-85
2022/07/06 00:07:24;;;;;;;4.10;1.60;;;;;;;;;;504717;29;1372;-87
2022/07/06 00:07:40;;;;;;;3.97;1.50;;;;;;;;;;504019;29;1266;-87
2022/07/06 00:07:55;;;;;;;2.60;1.30;;;;;;;;;;505951;29;1274;-86
2022/07/06 00:08:10;;;;;;;2.83;1.40;;;;;;;;;;506032;29;1257;-86
2022/07/06 00:08:26;;;;;;;3.35;1.33;;;;;;;;;;504331;29;1167;-87
2022/07/06 00:08:41;;;;;;;4.33;1.50;;;;;;;;;;506097;29;1164;-87
2022/07/06 00:08:57;;;;;;;4.23;1.60;;;;;;;;;;506302;29;1367;-87
2022/07/06 00:09:12;;;;;;;3.28;1.40;;;;;;;;;;506398;29;1449;-87
2022/07/06 00:09:28;;;;;;;3.28;1.40;;;;;;;;;;506305;29;1331;-87
2022/07/06 00:09:43;;;;;;;3.43;1.30;;;;;;;;;;506219;29;1247;-87
2022/07/06 00:09:59;;;;;;;3.50;1.40;;;;;;;;;;506422;29;1202;-87
2022/07/06 00:10:14;;;;;;;3.15;1.50;;;;;;;;;;503399;29;1366;-86
2022/07/06 00:10:29;;;;;;;3.03;1.40;;;;;;;;;;504503;29;956;-87
2022/07/06 00:10:45;;;;;;;4.13;1.30;;;;;;;;;;506271;29;1255;-85
2022/07/06 00:11:01;;;;;;;4.23;1.37;;;;;;;;;;506195;29;1263;-87
2022/07/06 00:11:16;;;;;;;3.88;1.50;;;;;;;;;;504510;29;1532;-86
2022/07/06 00:11:32;;;;;;;3.57;1.40;;;;;;;;;;507321;29;1530;-87
2022/07/06 00:11:47;;;;;;;3.22;1.23;;;;;;;;;;503800;29;1551;-86
2022/07/06 00:12:03;;;;;;;4.57;1.20;;;;;;;;;;503794;29;1727;-86
2022/07/06 00:12:18;;;;;;;4.25;1.30;;;;;;;;;;504516;29;1652;-87
2022/07/06 00:12:34;;;;;;;2.88;1.25;;;;;;;;;;503775;29;1962;-86
2022/07/06 00:12:49;;;;;;;3.33;1.20;;;;;;;;;;504914;29;1361;-87
2022/07/06 00:13:04;;;;;;;3.57;1.20;;;;;;;;;;506355;29;1063;-87
2022/07/06 00:13:20;;;;;;;4.28;1.30;;;;;;;;;;502268;29;1484;-86
2022/07/06 00:13:37;;;;;;;4.93;1.50;;;;;;;;;;503056;29;972;-87
2022/07/06 00:13:52;;;;;;;5.57;1.63;;;;;;;;;;502524;29;878;-86
2022/07/06 00:14:08;;;;;;;4.68;1.52;;;;;;;;;;502524;29;1182;-87
2022/07/06 00:14:24;;;;;;;4.10;1.50;;;;;;;;;;503850;29;1389;-87
2022/07/06 00:14:39;;;;;;;3.72;1.45;;;;;;;;;;506321;29;1158;-87
2022/07/06 00:14:54;;;;;;;4.87;1.20;;;;;;;;;;506852;29;1248;-86
2022/07/06 00:15:10;;;;;;;6.40;1.30;;;;;;;;;;505513;29;1299;-87
2022/07/06 00:15:25;;;;;;;4.80;1.40;;;;;;;;;;506221;29;1345;-87
2022/07/06 00:15:41;;;;;;;3.65;1.30;;;;;;;;;;504772;29;1436;-87
2022/07/06 00:15:56;;;;;;;4.30;1.30;;;;;;;;;;504665;29;1503;-86
2022/07/06 00:16:12;;;;;;;3.22;1.15;;;;;;;;;;504380;29;818;-87
2022/07/06 00:16:28;;;;;;;2.77;1.20;;;;;;;;;;506067;29;1195;-87
2022/07/06 00:16:43;;;;;;;3.08;1.15;;;;;;;;;;505535;29;1524;-87
2022/07/06 00:16:59;;;;;;;2.78;1.20;;;;;;;;;;508354;29;1273;-87
2022/07/06 00:17:14;;;;;;;3.10;1.40;;;;;;;;;;506852;29;1386;-88
2022/07/06 00:17:29;;;;;;;3.57;1.40;;;;;;;;;;505727;29;1430;-85
2022/07/06 00:17:45;;;;;;;4.65;1.40;;;;;;;;;;504420;29;1227;-87
2022/07/06 00:18:00;;;;;;;4.57;1.40;;;;;;;;;;504483;29;831;-86
2022/07/06 00:18:16;;;;;;;3.40;1.20;;;;;;;;;;504528;29;1291;-86
2022/07/06 00:18:31;;;;;;;3.95;1.20;;;;;;;;;;504995;29;1283;-87
2022/07/06 00:18:47;;;;;;;3.58;1.30;;;;;;;;;;506359;29;1281;-87
2022/07/06 00:19:02;;;;;;;4.03;1.30;;;;;;;;;;503607;29;1604;-87
2022/07/06 00:19:18;;;;;;;5.40;1.40;;;;;;;;;;502933;29;1489;-87
2022/07/06 00:19:33;;;;;;;5.20;1.30;;;;;;;;;;502949;29;1267;-87
2022/07/06 00:19:48;;;;;;;3.67;1.17;;;;;;;;;;506331;29;1103;-86
2022/07/06 00:20:04;;;;;;;3.45;1.20;;;;;;;;;;503429;29;1247;-87
2022/07/06 00:20:20;;;;;;;4.30;1.20;;;;;;;;;;502681;29;1414;-87
2022/07/06 00:20:35;;;;;;;3.88;1.25;;;;;;;;;;506266;29;1315;-87
2022/07/06 00:20:50;;;;;;;3.47;1.33;;;;;;;;;;506100;29;1491;-87
2022/07/06 00:21:06;;;;;;;3.23;1.40;;;;;;;;;;507581;29;1387;-87
2022/07/06 00:21:21;;;;;;;2.80;1.35;;;;;;;;;;507918;29;1320;-86
2022/07/06 00:21:39;;;;;;;3.85;1.30;;;;;;;;;;506278;29;837;-86
2022/07/06 00:21:55;;;;;;;4.88;1.40;;;;;;;;;;504195;29;1484;-87
2022/07/06 00:22:10;;;;;;;3.67;1.37;;;;;;;;;;506177;29;1540;-87
2022/07/06 00:22:25;;;;;;;3.90;1.20;;;;;;;;;;505756;29;1219;-87
2022/07/06 00:22:41;;;;;;;4.18;1.40;;;;;;;;;;504888;29;1396;-87
2022/07/06 00:22:56;;;;;;;3.40;1.40;;;;;;;;;;506304;29;1444;-88
2022/07/06 00:23:12;;;;;;;4.53;1.33;;;;;;;;;;505848;29;814;-88
2022/07/06 00:23:27;;;;;;;4.83;1.40;;;;;;;;;;504357;29;940;-87
2022/07/06 00:23:43;;;;;;;3.20;1.27;;;;;;;;;;504721;29;1533;-87
2022/07/06 00:23:59;;;;;;;2.85;1.30;;;;;;;;;;505814;29;1243;-88
2022/07/06 00:24:17;;;;;;;3.25;1.38;;;;;;;;;;505151;29;1330;-88
2022/07/06 00:24:33;;;;;;;2.97;1.30;;;;;;;;;;504323;29;1320;-88
2022/07/06 00:24:48;;;;;;;4.33;1.30;;;;;;;;;;502552;29;1163;-88
2022/07/06 00:25:04;;;;;;;5.37;1.30;;;;;;;;;;502234;29;1548;-87
2022/07/06 00:25:19;;;;;;;4.72;1.40;;;;;;;;;;502859;29;1195;-88
2022/07/06 00:25:34;;;;;;;5.43;1.60;;;;;;;;;;504723;29;1589;-88
2022/07/06 00:25:50;;;;;;;5.55;1.50;;;;;;;;;;502540;29;1378;-88
2022/07/06 00:26:06;;;;;;;3.77;1.40;;;;;;;;;;504318;29;1567;-88
2022/07/06 00:26:21;;;;;;;3.50;1.30;;;;;;;;;;506177;29;860;-87
2022/07/06 00:26:37;;;;;;;3.57;1.30;;;;;;;;;;507005;29;1259;-88
2022/07/06 00:26:52;;;;;;;3.80;1.30;;;;;;;;;;506378;29;1342;-87
2022/07/06 00:27:07;;;;;;;4.33;1.30;;;;;;;;;;506278;29;1294;-88
2022/07/06 00:27:23;;;;;;;3.40;1.40;;;;;;;;;;505904;29;1495;-87
2022/07/06 00:27:38;;;;;;;3.67;1.53;;;;;;;;;;503404;29;1133;-88
2022/07/06 00:27:54;;;;;;;5.40;1.52;;;;;;;;;;506258;29;1214;-87
2022/07/06 00:28:09;;;;;;;4.97;1.50;;;;;;;;;;504362;29;1336;-88
2022/07/06 00:28:25;;;;;;;3.27;1.33;;;;;;;;;;504289;29;1340;-88
2022/07/06 00:28:40;;;;;;;3.60;1.23;;;;;;;;;;504158;29;1644;-88
2022/07/06 00:28:56;;;;;;;4.43;1.40;;;;;;;;;;504453;29;1411;-87
2022/07/06 00:29:11;;;;;;;6.37;1.60;;;;;;;;;;502374;29;1174;-88
2022/07/06 00:29:26;;;;;;;5.40;1.40;;;;;;;;;;502372;29;1572;-88
2022/07/06 00:29:43;;;;;;;3.13;1.35;;;;;;;;;;502284;29;1445;-88
2022/07/06 00:29:59;;;;;;;3.25;1.50;;;;;;;;;;501231;29;1384;-88
2022/07/06 00:30:14;;;;;;;4.30;1.37;;;;;;;;;;502526;29;1075;-88
2022/07/06 00:30:30;;;;;;;4.53;1.40;;;;;;;;;;502018;29;1588;-88
2022/07/06 00:30:45;;;;;;;4.43;1.33;;;;;;;;;;501019;29;1206;-88
2022/07/06 00:31:01;;;;;;;3.75;1.30;;;;;;;;;;502883;29;1166;-87
2022/07/06 00:31:17;;;;;;;3.40;1.40;;;;;;;;;;504466;29;1258;-87
2022/07/06 00:31:32;;;;;;;3.65;1.42;;;;;;;;;;504231;29;1500;-88
2022/07/06 00:31:47;;;;;;;4.43;1.50;;;;;;;;;;505450;29;1420;-87
2022/07/06 00:32:03;;;;;;;5.43;1.40;;;;;;;;;;503864;29;1446;-88
2022/07/06 00:32:19;;;;;;;4.70;1.27;;;;;;;;;;505668;29;1342;-88
2022/07/06 00:32:34;;;;;;;4.80;1.50;;;;;;;;;;504532;29;1970;-88
2022/07/06 00:32:49;;;;;;;5.43;1.50;;;;;;;;;;505191;29;1540;-88
2022/07/06 00:33:05;;;;;;;5.35;1.50;;;;;;;;;;505824;29;1364;-88
2022/07/06 00:33:21;;;;;;;4.47;1.50;;;;;;;;;;504615;29;1440;-87
2022/07/06 00:33:37;;;;;;;2.33;1.33;;;;;;;;;;506439;29;849;-88
2022/07/06 00:33:52;;;;;;;2.30;1.37;;;;;;;;;;505951;29;1611;-88
2022/07/06 00:34:07;;;;;;;2.83;1.40;;;;;;;;;;504714;29;1405;-88
2022/07/06 00:34:23;;;;;;;2.85;1.40;;;;;;;;;;506805;29;1480;-87
2022/07/06 00:34:41;;;;;;;3.80;1.50;;;;;;;;;;507923;29;1484;-88
2022/07/06 00:34:56;;;;;;;5.57;1.60;;;;;;;;;;506359;29;948;-87
2022/07/06 00:35:12;;;;;;;5.47;1.60;;;;;;;;;;505308;29;1301;-87
2022/07/06 00:35:27;;;;;;;4.63;1.50;;;;;;;;;;504199;29;1165;-87
2022/07/06 00:35:43;;;;;;;3.97;1.52;;;;;;;;;;504642;29;1179;-88
2022/07/06 00:35:58;;;;;;;4.40;1.60;;;;;;;;;;503953;29;1514;-88
2022/07/06 00:36:14;;;;;;;5.20;1.70;;;;;;;;;;506219;29;1036;-87
2022/07/06 00:36:29;;;;;;;3.80;1.50;;;;;;;;;;505716;29;1301;-88
2022/07/06 00:36:44;;;;;;;3.70;1.50;;;;;;;;;;505365;29;1497;-88
2022/07/06 00:37:00;;;;;;;4.00;1.50;;;;;;;;;;508059;29;1280;-88
2022/07/06 00:37:15;;;;;;;3.53;1.33;;;;;;;;;;506182;29;1305;-88
2022/07/06 00:37:31;;;;;;;3.95;1.42;;;;;;;;;;506329;29;821;-87
2022/07/06 00:37:46;;;;;;;4.00;1.47;;;;;;;;;;504652;29;1258;-88
2022/07/06 00:38:01;;;;;;;3.47;1.40;;;;;;;;;;504343;29;1185;-87
2022/07/06 00:38:17;;;;;;;3.67;1.50;;;;;;;;;;504405;29;1264;-88
2022/07/06 00:38:33;;;;;;;4.20;1.50;;;;;;;;;;504410;29;1186;-87
2022/07/06 00:38:48;;;;;;;4.07;1.47;;;;;;;;;;508263;29;1298;-88
2022/07/06 00:39:03;;;;;;;4.07;1.50;;;;;;;;;;504351;29;1365;-87
2022/07/06 00:39:19;;;;;;;4.07;1.50;;;;;;;;;;504569;29;1622;-88
2022/07/06 00:39:34;;;;;;;3.60;1.40;;;;;;;;;;503375;29;1156;-87
2022/07/06 00:39:50;;;;;;;3.03;1.40;;;;;;;;;;504618;29;1243;-88
2022/07/06 00:40:06;;;;;;;2.83;1.47;;;;;;;;;;506305;29;1400;-87
2022/07/06 00:40:22;;;;;;;2.90;1.40;;;;;;;;;;507916;29;1538;-87
2022/07/06 00:40:37;;;;;;;3.50;1.50;;;;;;;;;;504117;29;1484;-88
2022/07/06 00:40:53;;;;;;;3.30;1.60;;;;;;;;;;504128;29;1596;-87
2022/07/06 00:41:09;;;;;;;3.55;1.52;;;;;;;;;;505980;29;1487;-88
2022/07/06 00:41:24;;;;;;;4.10;1.53;;;;;;;;;;504768;29;1624;-86
2022/07/06 00:41:39;;;;;;;4.10;1.43;;;;;;;;;;500332;29;1592;-87
2022/07/06 00:41:56;;;;;;;4.50;1.50;;;;;;;;;;500656;29;1368;-88
2022/07/06 00:42:11;;;;;;;4.03;1.50;;;;;;;;;;502558;29;1467;-88
2022/07/06 00:42:26;;;;;;;3.50;1.40;;;;;;;;;;502188;29;1402;-87
2022/07/06 00:42:44;;;;;;;3.58;1.45;;;;;;;;;;505696;29;1309;-88
2022/07/06 00:43:00;;;;;;;4.25;1.70;;;;;;;;;;504115;29;1118;-87
2022/07/06 00:43:15;;;;;;;4.53;1.70;;;;;;;;;;506008;29;1225;-87
2022/07/06 00:43:49;;;;;;;4.57;1.52;;;;;;;;;;504653;29;1208;-88
2022/07/06 00:44:09;;;;;;;5.10;1.60;;;;;;;;;;506894;29;901;-87
2022/07/06 00:44:24;;;;;;;3.85;1.50;;;;;;;;;;504372;29;1525;-87
2022/07/06 00:44:40;;;;;;;3.95;1.45;;;;;;;;;;505378;29;1255;-88
2022/07/06 00:44:55;;;;;;;4.90;1.57;;;;;;;;;;504422;29;1285;-88
2022/07/06 00:45:12;;;;;;;4.15;1.60;;;;;;;;;;504855;29;1614;-88
2022/07/06 00:45:27;;;;;;;4.20;1.65;;;;;;;;;;505056;29;1238;-88
2022/07/06 00:45:43;;;;;;;5.05;1.77;;;;;;;;;;505792;29;1437;-88
2022/07/06 00:45:59;;;;;;;4.22;1.70;;;;;;;;;;505671;29;1547;-87
2022/07/06 00:46:14;;;;;;;4.73;1.50;;;;;;;;;;506727;29;973;-88
2022/07/06 00:46:32;;;;;;;4.85;1.40;;;;;;;;;;504027;29;1612;-88
2022/07/06 00:46:48;;;;;;;3.17;1.30;;;;;;;;;;504375;29;1563;-88
2022/07/06 00:47:03;;;;;;;2.70;1.40;;;;;;;;;;504228;29;1194;-88
2022/07/06 00:47:19;;;;;;;4.30;1.50;;;;;;;;;;502050;29;1329;-88
2022/07/06 00:47:34;;;;;;;4.40;1.60;;;;;;;;;;502100;29;1248;-88
2022/07/06 00:47:50;;;;;;;3.13;1.60;;;;;;;;;;502097;29;1656;-88
2022/07/06 00:48:05;;;;;;;3.43;1.53;;;;;;;;;;502096;29;993;-88
2022/07/06 00:48:21;;;;;;;3.90;1.58;;;;;;;;;;503010;29;1318;-88
2022/07/06 00:48:36;;;;;;;3.67;1.53;;;;;;;;;;505065;29;1531;-88
2022/07/06 00:48:51;;;;;;;3.67;1.50;;;;;;;;;;506541;29;1385;-88
2022/07/06 00:50:13;;;;;;;3.27;1.60;;;;;;;;;;507373;29;1507;-88
2022/07/06 00:50:21;;;;;;;5.47;1.80;;;;;;;;;;504668;29;1309;-86
2022/07/06 00:50:25;;;;;;;3.90;1.52;;;;;;;;;;506342;29;942;-88
2022/07/06 00:50:38;;;;;;;4.90;1.70;;;;;;;;;;507191;29;1417;-87
2022/07/06 00:50:55;;;;;;;4.32;1.55;;;;;;;;;;512005;29;1194;-88
2022/07/06 00:51:12;;;;;;;5.53;1.73;;;;;;;;;;509610;29;1324;-88
2022/07/06 00:51:32;;;;;;;5.25;1.80;;;;;;;;;;508867;29;1397;-88
2022/07/06 00:51:47;;;;;;;2.95;1.58;;;;;;;;;;508153;29;1542;-88
2022/07/06 00:52:05;;;;;;;4.37;1.53;;;;;;;;;;508467;29;1515;-87
2022/07/06 00:52:20;;;;;;;4.53;1.70;;;;;;;;;;509876;29;1237;-88
2022/07/06 00:52:35;;;;;;;3.58;1.90;;;;;;;;;;509287;29;1907;-88
2022/07/06 00:52:54;;;;;;;4.07;1.80;;;;;;;;;;508242;29;1503;-88
2022/07/06 00:53:09;;;;;;;5.22;1.60;;;;;;;;;;508033;29;1432;-88
2022/07/06 00:53:25;;;;;;;4.82;1.58;;;;;;;;;;505936;29;1226;-88
2022/07/06 00:53:41;;;;;;;4.47;1.60;;;;;;;;;;504257;29;1504;-87
2022/07/06 00:54:00;;;;;;;3.55;1.65;;;;;;;;;;505793;29;1341;-87
2022/07/06 00:54:15;;;;;;;3.47;1.77;;;;;;;;;;502262;29;1299;-88
2022/07/06 00:54:32;;;;;;;4.38;1.70;;;;;;;;;;503079;29;1318;-87
2022/07/06 00:54:47;;;;;;;4.32;1.70;;;;;;;;;;502385;29;1476;-87
2022/07/06 00:55:03;;;;;;;4.43;1.63;;;;;;;;;;502173;29;1537;-88
2022/07/06 00:55:25;;;;;;;6.70;1.80;;;;;;;;;;503209;29;1194;-88
2022/07/06 00:55:40;;;;;;;4.65;1.75;;;;;;;;;;504291;29;1154;-88
2022/07/06 00:55:56;;;;;;;4.22;2.00;;;;;;;;;;504322;29;1336;-88
2022/07/06 00:56:11;;;;;;;5.17;1.73;;;;;;;;;;504011;29;1076;-88
2022/07/06 00:56:29;;;;;;;5.55;1.70;;;;;;;;;;503702;29;1184;-88
2022/07/06 00:56:45;;;;;;;5.35;1.52;;;;;;;;;;505795;29;1324;-88
2022/07/06 00:57:01;;;;;;;4.07;1.60;;;;;;;;;;506123;29;1286;-88
2022/07/06 00:57:18;;;;;;;4.28;1.85;;;;;;;;;;507820;29;1152;-88
2022/07/06 00:57:33;;;;;;;3.55;1.80;;;;;;;;;;506239;29;1436;-88
2022/07/06 00:57:49;;;;;;;4.25;1.70;;;;;;;;;;507748;29;925;-88
2022/07/06 00:58:05;;;;;;;4.80;1.90;;;;;;;;;;509401;29;1134;-88
2022/07/06 00:58:21;;;;;;;3.20;1.80;;;;;;;;;;511067;29;1269;-87
2022/07/06 00:58:36;;;;;;;3.67;1.70;;;;;;;;;;507541;29;1164;-88
2022/07/06 00:58:51;;;;;;;4.57;1.73;;;;;;;;;;505642;29;1207;-88
2022/07/06 00:59:07;;;;;;;3.40;1.63;;;;;;;;;;504550;29;1399;-88
2022/07/06 00:59:24;;;;;;;3.85;1.80;;;;;;;;;;504046;29;1216;-88
2022/07/06 00:59:39;;;;;;;4.18;1.85;;;;;;;;;;504776;29;1143;-88
2022/07/06 00:59:56;;;;;;;4.30;1.70;;;;;;;;;;504063;29;1288;-88
2022/07/06 01:00:14;;;;;;;4.07;1.67;;;;;;;;;;503587;29;1270;-88
2022/07/06 01:00:30;;;;;;;4.05;1.73;;;;;;;;;;504097;29;1289;-88
2022/07/06 01:00:46;;;;;;;4.70;1.80;;;;;;;;;;504338;29;1367;-88
2022/07/06 01:01:01;;;;;;;4.57;1.60;;;;;;;;;;502038;29;1596;-88
2022/07/06 01:01:17;;;;;;;4.25;1.60;;;;;;;;;;500343;29;1471;-88
2022/07/06 01:01:32;;;;;;;4.33;1.70;;;;;;;;;;500537;29;945;-88
2022/07/06 01:01:47;;;;;;;3.97;1.80;;;;;;;;;;501373;29;886;-88
2022/07/06 01:02:03;;;;;;;4.60;1.80;;;;;;;;;;502718;29;1457;-87
2022/07/06 01:02:18;;;;;;;6.20;1.80;;;;;;;;;;505393;29;1263;-88
2022/07/06 01:02:35;;;;;;;4.47;1.80;;;;;;;;;;504368;29;762;-87
2022/07/06 01:02:51;;;;;;;3.58;1.75;;;;;;;;;;505872;29;1412;-88
2022/07/06 01:03:07;;;;;;;3.95;1.60;;;;;;;;;;510320;29;1047;-88
2022/07/06 01:03:22;;;;;;;4.20;1.60;;;;;;;;;;510411;29;990;-88
2022/07/06 01:03:37;;;;;;;4.50;1.60;;;;;;;;;;508725;29;1526;-87
2022/07/06 01:03:54;;;;;;;3.60;1.50;;;;;;;;;;509563;29;1282;-88
2022/07/06 01:04:09;;;;;;;3.85;1.50;;;;;;;;;;508882;29;1593;-88
2022/07/06 01:04:25;;;;;;;3.90;1.50;;;;;;;;;;508788;29;1156;-88
2022/07/06 01:04:40;;;;;;;4.07;1.50;;;;;;;;;;508036;29;1276;-87
2022/07/06 01:04:55;;;;;;;5.35;1.60;;;;;;;;;;506181;29;1352;-88
2022/07/06 01:05:13;;;;;;;4.30;1.70;;;;;;;;;;506083;29;992;-87
2022/07/06 01:05:29;;;;;;;3.45;1.70;;;;;;;;;;506318;29;1495;-87
2022/07/06 01:05:44;;;;;;;4.15;1.60;;;;;;;;;;504060;29;1393;-88
2022/07/06 01:06:00;;;;;;;4.28;1.60;;;;;;;;;;505085;29;1425;-88
2022/07/06 01:06:16;;;;;;;5.13;1.70;;;;;;;;;;502372;29;1378;-88
2022/07/06 01:06:31;;;;;;;4.57;1.60;;;;;;;;;;502344;29;1288;-88
2022/07/06 01:06:47;;;;;;;3.03;1.57;;;;;;;;;;502369;29;1304;-88
2022/07/06 01:07:03;;;;;;;3.03;1.60;;;;;;;;;;502249;29;1345;-88
2022/07/06 01:07:18;;;;;;;3.30;1.53;;;;;;;;;;504275;29;1278;-88
2022/07/06 01:07:35;;;;;;;3.30;1.63;;;;;;;;;;504214;29;1319;-88
2022/07/06 01:07:52;;;;;;;6.25;1.90;;;;;;;;;;504318;29;920;-88
2022/07/06 01:08:08;;;;;;;5.95;1.80;;;;;;;;;;505231;29;854;-88
2022/07/06 01:08:24;;;;;;;3.53;1.60;;;;;;;;;;506760;29;1248;-87
2022/07/06 01:08:39;;;;;;;4.37;1.60;;;;;;;;;;507642;29;1535;-87
2022/07/06 01:08:55;;;;;;;5.25;1.70;;;;;;;;;;509125;29;1343;-88
2022/07/06 01:09:10;;;;;;;5.00;1.80;;;;;;;;;;507418;29;1168;-88
2022/07/06 01:09:25;;;;;;;3.65;1.60;;;;;;;;;;506883;29;1218;-88
2022/07/06 01:09:42;;;;;;;4.83;1.57;;;;;;;;;;509072;29;1652;-88
2022/07/06 01:09:57;;;;;;;4.60;1.77;;;;;;;;;;508839;29;1431;-88
2022/07/06 01:10:15;;;;;;;3.53;1.70;;;;;;;;;;507808;29;1459;-88
2022/07/06 01:10:30;;;;;;;4.85;1.60;;;;;;;;;;509005;29;1419;-88
2022/07/06 01:10:45;;;;;;;6.13;1.60;;;;;;;;;;506704;29;1186;-88
2022/07/06 01:11:02;;;;;;;5.17;1.80;;;;;;;;;;505760;29;1444;-87
2022/07/06 01:11:19;;;;;;;3.47;1.70;;;;;;;;;;506941;29;1243;-87
2022/07/06 01:11:35;;;;;;;3.92;1.60;;;;;;;;;;506899;29;1306;-87
2022/07/06 01:11:52;;;;;;;4.57;1.70;;;;;;;;;;503667;29;1483;-88
2022/07/06 01:12:08;;;;;;;4.47;1.80;;;;;;;;;;504368;29;1325;-86
2022/07/06 01:12:24;;;;;;;3.63;1.83;;;;;;;;;;504719;29;1278;-89
2022/07/06 01:12:41;;;;;;;4.47;1.70;;;;;;;;;;502094;29;1911;-87
2022/07/06 01:12:57;;;;;;;5.40;1.65;;;;;;;;;;503453;29;1454;-88
2022/07/06 01:13:13;;;;;;;4.53;1.70;;;;;;;;;;505277;29;1846;-87
2022/07/06 01:13:30;;;;;;;4.97;1.57;;;;;;;;;;505825;29;1505;-87
2022/07/06 01:13:48;;;;;;;5.00;1.60;;;;;;;;;;507192;29;964;-88
2022/07/06 01:14:03;;;;;;;4.43;1.77;;;;;;;;;;505281;29;945;-87
2022/07/06 01:14:19;;;;;;;3.70;1.58;;;;;;;;;;505460;29;1281;-88
2022/07/06 01:14:36;;;;;;;3.78;1.50;;;;;;;;;;505680;29;1505;-88
2022/07/06 01:14:52;;;;;;;5.05;1.67;;;;;;;;;;507735;29;882;-88
2022/07/06 01:15:22;;;;;;;4.32;1.67;;;;;;;;;;504437;29;1412;-88
2022/07/06 01:15:37;;;;;;;3.47;1.65;;;;;;;;;;504314;29;926;-88
2022/07/06 01:15:53;;;;;;;3.70;1.50;;;;;;;;;;504164;29;1139;-87
2022/07/06 01:16:08;;;;;;;3.47;1.58;;;;;;;;;;504322;29;1587;-88
2022/07/06 01:16:24;;;;;;;3.63;1.73;;;;;;;;;;507592;29;1167;-88
2022/07/06 01:16:39;;;;;;;3.42;1.70;;;;;;;;;;506127;29;1522;-88
2022/07/06 01:16:55;;;;;;;3.87;1.67;;;;;;;;;;508046;29;1160;-88
2022/07/06 01:17:13;;;;;;;4.25;1.70;;;;;;;;;;506151;29;1271;-88
2022/07/06 01:17:28;;;;;;;3.33;1.60;;;;;;;;;;507421;29;1481;-88
2022/07/06 01:17:44;;;;;;;4.18;1.58;;;;;;;;;;506132;29;1357;-88
2022/07/06 01:18:00;;;;;;;4.22;1.50;;;;;;;;;;504349;29;1412;-88
2022/07/06 01:18:15;;;;;;;4.23;1.60;;;;;;;;;;504383;29;1216;-88
2022/07/06 01:18:32;;;;;;;4.68;1.67;;;;;;;;;;506060;29;834;-89
2022/07/06 01:18:47;;;;;;;3.97;1.50;;;;;;;;;;504287;29;1252;-88
2022/07/06 01:19:02;;;;;;;3.92;1.55;;;;;;;;;;503320;29;1611;-88
2022/07/06 01:19:17;;;;;;;3.43;1.53;;;;;;;;;;504169;29;1402;-87
2022/07/06 01:19:33;;;;;;;3.87;1.60;;;;;;;;;;504273;29;1249;-87
2022/07/06 01:19:49;;;;;;;5.22;1.60;;;;;;;;;;504312;29;1103;-89
2022/07/06 01:20:12;;;;;;;5.07;1.80;;;;;;;;;;505564;29;1346;-88
2022/07/06 01:20:29;;;;;;;5.03;1.60;;;;;;;;;;506137;29;1438;-88
2022/07/06 01:20:44;;;;;;;5.03;1.63;;;;;;;;;;505565;29;1446;-88
2022/07/06 01:21:07;;;;;;;4.30;1.60;;;;;;;;;;505624;29;912;-88
2022/07/06 01:21:23;;;;;;;3.75;1.70;;;;;;;;;;507665;29;1769;-88
2022/07/06 01:21:38;;;;;;;4.87;1.60;;;;;;;;;;506762;29;1253;-88
2022/07/06 01:21:53;;;;;;;5.38;1.60;;;;;;;;;;505840;29;1174;-88
2022/07/06 01:22:09;;;;;;;5.13;1.80;;;;;;;;;;504145;29;1171;-86
2022/07/06 01:22:25;;;;;;;5.72;1.63;;;;;;;;;;504219;29;1187;-87
2022/07/06 01:22:41;;;;;;;5.40;1.52;;;;;;;;;;506240;29;1593;-88
2022/07/06 01:22:59;;;;;;;3.60;1.50;;;;;;;;;;508850;29;1356;-88
2022/07/06 01:23:15;;;;;;;3.83;1.65;;;;;;;;;;508889;29;1403;-87
2022/07/06 01:23:30;;;;;;;5.10;1.80;;;;;;;;;;507928;29;1680;-88
2022/07/06 01:23:47;;;;;;;5.32;1.63;;;;;;;;;;505716;29;1309;-87
2022/07/06 01:24:02;;;;;;;5.55;1.50;;;;;;;;;;503835;29;1118;-88
2022/07/06 01:24:18;;;;;;;5.40;1.67;;;;;;;;;;503970;29;1179;-87
2022/07/06 01:24:37;;;;;;;5.05;1.80;;;;;;;;;;504299;29;1396;-88
2022/07/06 01:24:52;;;;;;;4.78;1.60;;;;;;;;;;505081;29;1405;-88
2022/07/06 01:25:08;;;;;;;5.28;1.60;;;;;;;;;;506040;29;1329;-88
2022/07/06 01:25:24;;;;;;;4.85;1.73;;;;;;;;;;505601;29;1245;-88
2022/07/06 01:25:39;;;;;;;3.97;1.60;;;;;;;;;;506874;29;1490;-88
2022/07/06 01:25:55;;;;;;;3.65;1.55;;;;;;;;;;506200;29;1478;-88
2022/07/06 01:26:13;;;;;;;4.40;1.60;;;;;;;;;;506799;29;1418;-88
2022/07/06 01:26:29;;;;;;;5.15;1.60;;;;;;;;;;504038;29;1459;-87
2022/07/06 01:26:45;;;;;;;3.88;1.55;;;;;;;;;;503216;29;1277;-88
2022/07/06 01:27:01;;;;;;;3.22;1.52;;;;;;;;;;502369;29;1462;-88
2022/07/06 01:27:16;;;;;;;3.73;1.50;;;;;;;;;;506182;29;1602;-87
2022/07/06 01:27:34;;;;;;;4.00;1.48;;;;;;;;;;504194;29;1515;-88
2022/07/06 01:27:49;;;;;;;4.82;1.60;;;;;;;;;;504314;29;1278;-88
2022/07/06 01:28:05;;;;;;;4.47;1.70;;;;;;;;;;504226;29;1186;-88
2022/07/06 01:28:20;;;;;;;4.85;1.75;;;;;;;;;;504212;29;1567;-88
2022/07/06 01:28:36;;;;;;;5.77;1.67;;;;;;;;;;504190;29;1171;-88
2022/07/06 01:28:52;;;;;;;5.75;1.65;;;;;;;;;;505494;29;1293;-88
2022/07/06 01:29:07;;;;;;;4.43;1.60;;;;;;;;;;506188;29;1353;-87
2022/07/06 01:29:23;;;;;;;4.10;1.63;;;;;;;;;;504648;29;1598;-88
2022/07/06 01:29:38;;;;;;;3.80;1.58;;;;;;;;;;507351;29;1567;-88
2022/07/06 01:29:54;;;;;;;4.67;1.63;;;;;;;;;;507025;29;1250;-87
2022/07/06 01:30:11;;;;;;;4.45;1.65;;;;;;;;;;504640;29;1723;-88
2022/07/06 01:30:27;;;;;;;4.20;1.58;;;;;;;;;;506162;29;1398;-88
2022/07/06 01:30:42;;;;;;;4.40;1.63;;;;;;;;;;504335;29;1389;-88
2022/07/06 01:30:57;;;;;;;4.07;1.70;;;;;;;;;;503245;29;1232;-88
2022/07/06 01:31:18;;;;;;;4.23;1.80;;;;;;;;;;502428;29;1206;-88
2022/07/06 01:31:34;;;;;;;4.63;1.75;;;;;;;;;;502259;29;1241;-88
2022/07/06 01:31:50;;;;;;;3.83;1.60;;;;;;;;;;504201;29;1144;-88
2022/07/06 01:32:06;;;;;;;4.38;1.58;;;;;;;;;;506086;29;1362;-88
2022/07/06 01:32:22;;;;;;;5.50;1.63;;;;;;;;;;504098;29;1176;-87
2022/07/06 01:32:38;;;;;;;5.20;1.70;;;;;;;;;;504042;29;1991;-88
2022/07/06 01:32:54;;;;;;;4.53;1.60;;;;;;;;;;504026;29;1242;-88
2022/07/06 01:33:09;;;;;;;3.70;1.57;;;;;;;;;;502704;29;1254;-88
2022/07/06 01:33:24;;;;;;;3.55;1.50;;;;;;;;;;504266;29;1526;-88
2022/07/06 01:33:40;;;;;;;4.27;1.50;;;;;;;;;;504179;29;1420;-88
2022/07/06 01:33:56;;;;;;;4.47;1.60;;;;;;;;;;508006;29;1166;-87
2022/07/06 01:34:11;;;;;;;5.15;1.60;;;;;;;;;;506207;29;1643;-88
2022/07/06 01:34:27;;;;;;;5.10;1.50;;;;;;;;;;504943;29;1277;-88
2022/07/06 01:34:43;;;;;;;3.58;1.50;;;;;;;;;;504437;29;886;-88
2022/07/06 01:34:59;;;;;;;3.53;1.50;;;;;;;;;;506071;29;1183;-87
2022/07/06 01:35:15;;;;;;;4.00;1.40;;;;;;;;;;507320;29;1068;-88
2022/07/06 01:35:35;;;;;;;3.13;1.45;;;;;;;;;;507457;29;1329;-88
2022/07/06 01:35:51;;;;;;;3.05;1.45;;;;;;;;;;505030;29;1281;-88
2022/07/06 01:36:06;;;;;;;2.97;1.30;;;;;;;;;;506897;29;1598;-88
2022/07/06 01:36:22;;;;;;;3.55;1.40;;;;;;;;;;509598;29;1242;-88
2022/07/06 01:36:37;;;;;;;7.95;1.70;;;;;;;;;;511021;29;1328;-88
2022/07/06 01:36:54;;;;;;;8.40;1.67;;;;;;;;;;506006;29;1342;-88
2022/07/06 01:37:09;;;;;;;4.90;1.50;;;;;;;;;;503908;29;1291;-88
2022/07/06 01:37:25;;;;;;;5.37;1.80;;;;;;;;;;501919;29;1455;-87
2022/07/06 01:37:41;;;;;;;4.85;1.80;;;;;;;;;;505101;29;1162;-88
2022/07/06 01:37:56;;;;;;;4.63;1.67;;;;;;;;;;504233;29;1545;-87
2022/07/06 01:38:12;;;;;;;4.30;1.70;;;;;;;;;;502782;29;1557;-88
2022/07/06 01:38:27;;;;;;;4.40;1.90;;;;;;;;;;506666;29;1325;-88
2022/07/06 01:38:46;;;;;;;3.87;1.80;;;;;;;;;;506544;29;1411;-87
2022/07/06 01:39:02;;;;;;;3.47;1.45;;;;;;;;;;504070;29;1349;-88
2022/07/06 01:39:17;;;;;;;4.55;1.70;;;;;;;;;;500564;29;1542;-88
2022/07/06 01:39:33;;;;;;;4.30;1.70;;;;;;;;;;503991;29;1316;-88